08:55
Airports
History
Links
Donate
Help keep this website running!
PayPal
Bitcoin
This page is community maintained. The information is intended for PC simulator navigation or reference.
Always use approved charts for navigation.
Z48
Bear Creek 3Updated 21-May-2014
Bear Creek 3 (Z48)
Alaska, United States
4
Lat/Lng:63° 34' 17.79" N / 156° 8' 38.58" W
63.571608 / -156.14405
Elevation:740'ft / 226mMSL
Declination:E023°
ID / ICAO:Z48
FAA:Z48
Runways:1
Longest:15-33
Gravel 515m / 1,690ft
(Edited 2014-05-21) [ Sign in to Edit ]
Nearby Weather08:53 GMT 2018-01-20
Nearby weather at PAMC, Mc Grath located 45.9 nautical miles from Z48
Altimeter: 30.13
Visibility: 10.0 statute miles
Wind: 4 knots (from 060°)
Temp: -19°c / -2°f
Humidity: 53.7%

METAR: PAMC 200853Z AUTO 06004KT 10SM CLR M19/M26 A3013 RMK AO2 SLP214 T11891261 411111194 51015 TSNO $

(Powered by phpweather)
Nearby VORs <50NM
Nearby NDBs
Runway 15 / 33
Dimensions:515 x 12.2m 1690' x 40'ft
Surface:Gravel
Runway 15 [A]Runway 33 [B]
Heading:149°MH  172°TH329°MH   352°TH
Lat:
Lng:
63° 34' 26"N
156° 8' 40.85"W
63° 34' 9.59"N
156° 8' 36.32"W
User Notes and Comments
63° 34' 17.79" N / 156° 8' 38.58" W
Distance To
Airport ID:
Nearby Airports
(R) Colorado Creek 4.8 NM
KCR E 93°
4 Ophir 31.7 NM
Z17 SSW 202°
4 Takotna 40.1 NM
TCT S 176°
(U) Mc Grath 45.9 NM
PAMC ( WX ) SSE 158°
(R) Tatalina Lrrs 47.0 NM
PATL ( WX ) S 173°
4 Medfra 54.7 NM
MDR SE 126°
4 Nikolai 67.3 NM
PAFS SE 124°
VFR Chart
Flight Planning at SkyVector.com